North Russell, New York
Current Conditions -  °F | °C
As of 6:15 PM on Saturday 25 Oct 2014 (Local Time) from KMSS Reporting Station
Haze Haze  
Wind Chill: 52°   Ceiling: Unl
Heat Index: 52°   Visibility: 6mi
Dew Point: 50°   Wind: 9mph
Humidity: 93%   Direction: 220°SW
Pressure: 29.48"   Gusts: NA
Location:  44.5792°N, 75.1592°W
Report Text: KMSS 252215Z AUTO 22008KT 6SM BR FEW015 SCT029 11/10 A2948 RMK AO2 T01110100
Loading
Personal Weather Stations






























Interactive Weather Map
Tropical Storm Tracking
New forecast layout! Learn more

10-Day Weather Forecast

Advertisements
Track Severe Weather on mobile